Time;durP1;ratioP1;P1;durP2;ratioP2;P2;SDS_P1;SDS_P2;PMS_P1;PMS_P2;Temp;Humidity;BMP_temperature;BMP_pressure;BME280_temperature;BME280_humidity;BME280_pressure;Samples;Min_cycle;Max_cycle;Signal;HPM_P1;HPM_P2
2022/05/14 00:01:58;;;;;;;5.95;2.10;;;;;;;;;;6217598;23;20005;-81
2022/05/14 00:04:24;;;;;;;8.55;2.30;;;;;;;;;;6217560;23;20032;-84
2022/05/14 00:15:16;;;;;;;4.85;2.15;;;;;;;;;;6188126;23;20041;-88
2022/05/14 00:20:46;;;;;;;6.22;2.60;;;;;;;;;;6188256;23;20061;-81
2022/05/14 00:23:22;;;;;;;5.65;2.45;;;;;;;;;;6197404;23;20021;-82
2022/05/14 00:25:48;;;;;;;6.47;2.50;;;;;;;;;;6161651;23;20465;-81
2022/05/14 00:28:15;;;;;;;6.30;2.47;;;;;;;;;;6161575;23;20041;-88
2022/05/14 00:30:41;;;;;;;4.53;2.30;;;;;;;;;;6188515;23;20001;-89
2022/05/14 00:33:31;;;;;;;9.50;2.80;;;;;;;;;;6180140;23;20024;-87
2022/05/14 00:36:04;;;;;;;13.25;3.13;;;;;;;;;;6097913;23;20448;-89
2022/05/14 00:38:48;;;;;;;5.95;2.30;;;;;;;;;;6096835;23;20306;-89
2022/05/14 00:44:21;;;;;;;4.65;2.22;;;;;;;;;;6187231;23;20021;-89
2022/05/14 00:49:42;;;;;;;6.13;2.40;;;;;;;;;;6189290;23;20025;-89
2022/05/14 00:52:26;;;;;;;4.25;2.40;;;;;;;;;;6162932;23;20016;-90
2022/05/14 00:55:01;;;;;;;6.85;2.40;;;;;;;;;;6161971;23;20008;-90
2022/05/14 00:57:28;;;;;;;5.47;2.58;;;;;;;;;;6162345;23;20324;-91
2022/05/14 00:59:55;;;;;;;5.68;2.63;;;;;;;;;;6161769;23;20001;-89
2022/05/14 01:02:21;;;;;;;5.95;2.50;;;;;;;;;;6163624;23;20005;-90
2022/05/14 01:04:47;;;;;;;9.10;2.63;;;;;;;;;;6162869;23;20334;-81
2022/05/14 01:07:18;;;;;;;7.03;2.58;;;;;;;;;;6162303;23;20009;-89
2022/05/14 01:09:47;;;;;;;9.02;2.83;;;;;;;;;;6162835;23;20005;-87
2022/05/14 01:12:15;;;;;;;7.22;2.40;;;;;;;;;;6188924;23;20001;-82
2022/05/14 01:14:41;;;;;;;8.38;2.53;;;;;;;;;;6161749;23;20068;-90
2022/05/14 01:20:35;;;;;;;11.60;2.65;;;;;;;;;;6218597;23;20075;-90
2022/05/14 01:26:27;;;;;;;6.88;2.70;;;;;;;;;;6254214;22;20023;-88
2022/05/14 01:29:44;;;;;;;10.13;2.60;;;;;;;;;;6279302;22;20052;-88
2022/05/14 01:32:23;;;;;;;10.52;2.80;;;;;;;;;;6252559;22;20004;-88
2022/05/14 01:35:14;;;;;;;8.98;2.35;;;;;;;;;;6253527;22;20003;-90
2022/05/14 01:38:03;;;;;;;12.02;2.85;;;;;;;;;;6208864;23;20259;-82
2022/05/14 01:41:03;;;;;;;10.88;2.35;;;;;;;;;;6196417;23;20004;-90
2022/05/14 01:44:04;;;;;;;6.28;2.70;;;;;;;;;;6219406;23;20001;-90
2022/05/14 01:46:31;;;;;;;9.65;2.72;;;;;;;;;;6220300;23;20012;-83
2022/05/14 01:49:17;;;;;;;7.28;2.72;;;;;;;;;;6218224;23;20000;-89
2022/05/14 01:52:04;;;;;;;7.07;2.55;;;;;;;;;;6218695;23;20005;-90
2022/05/14 01:54:51;;;;;;;5.75;2.53;;;;;;;;;;6218468;23;20516;-89
2022/05/14 02:00:16;;;;;;;6.65;2.53;;;;;;;;;;6219289;23;20096;-90
2022/05/14 02:02:51;;;;;;;11.02;3.03;;;;;;;;;;6196169;23;20021;-90
2022/05/14 02:05:18;;;;;;;10.40;2.80;;;;;;;;;;6188215;23;20017;-83
2022/05/14 02:07:56;;;;;;;8.48;2.80;;;;;;;;;;6198398;23;20108;-89
2022/05/14 02:10:51;;;;;;;8.20;2.65;;;;;;;;;;6220372;23;20008;-89
2022/05/14 02:13:36;;;;;;;12.15;2.88;;;;;;;;;;6190784;23;20021;-85
2022/05/14 02:16:27;;;;;;;6.10;2.60;;;;;;;;;;6188841;23;20326;-89
2022/05/14 02:19:06;;;;;;;4.60;2.55;;;;;;;;;;6188639;23;20012;-89
2022/05/14 02:22:01;;;;;;;7.05;2.88;;;;;;;;;;6188425;23;20063;-89
2022/05/14 02:27:20;;;;;;;7.95;2.25;;;;;;;;;;6170597;23;20055;-82
2022/05/14 02:29:56;;;;;;;5.03;2.40;;;;;;;;;;6218828;23;20062;-82
2022/05/14 02:32:34;;;;;;;;;;;;;;;;;;;;;
2022/05/14 02:35:09;;;;;;;5.25;2.40;;;;;;;;;;6190062;23;20076;-88
2022/05/14 02:37:38;;;;;;;5.38;2.30;;;;;;;;;;6195871;23;20038;-87
2022/05/14 02:40:08;;;;;;;5.63;2.60;;;;;;;;;;6218720;23;20007;-88
2022/05/14 02:42:41;;;;;;;6.75;2.50;;;;;;;;;;6187662;23;20108;-88
2022/05/14 02:45:08;;;;;;;6.95;2.80;;;;;;;;;;6187283;23;20017;-81
2022/05/14 02:47:34;;;;;;;5.03;2.45;;;;;;;;;;6189628;23;20005;-82
2022/05/14 02:50:00;;;;;;;5.68;2.63;;;;;;;;;;6188419;23;20112;-84
2022/05/14 02:52:28;;;;;;;5.15;2.50;;;;;;;;;;6188295;23;20017;-89
2022/05/14 02:54:54;;;;;;;7.30;2.70;;;;;;;;;;6188889;23;20005;-89
2022/05/14 02:57:20;;;;;;;6.22;2.50;;;;;;;;;;6186566;23;20079;-81
2022/05/14 02:59:58;;;;;;;6.82;2.60;;;;;;;;;;6187020;23;20016;-89
2022/05/14 03:05:45;;;;;;;11.70;2.60;;;;;;;;;;6188962;23;20040;-85
2022/05/14 03:08:24;;;;;;;10.45;2.38;;;;;;;;;;6202385;23;20271;-89
2022/05/14 03:10:57;;;;;;;7.25;2.47;;;;;;;;;;6217895;23;20020;-89
2022/05/14 03:13:26;;;;;;;6.70;2.60;;;;;;;;;;6193917;23;20025;-81
2022/05/14 03:15:52;;;;;;;8.95;2.47;;;;;;;;;;6192423;23;20000;-82
2022/05/14 03:18:26;;;;;;;6.32;2.30;;;;;;;;;;6206506;23;20039;-88
2022/05/14 03:29:31;;;;;;;9.18;2.67;;;;;;;;;;6236357;22;20024;-89
2022/05/14 03:32:16;;;;;;;8.32;2.80;;;;;;;;;;6223213;23;20019;-88
2022/05/14 03:38:05;;;;;;;6.80;2.10;;;;;;;;;;6191074;23;20051;-89
2022/05/14 03:40:31;;;;;;;6.40;2.10;;;;;;;;;;6218377;23;20019;-81
2022/05/14 03:42:57;;;;;;;7.18;2.35;;;;;;;;;;6216388;23;20004;-87
2022/05/14 03:45:23;;;;;;;3.75;2.00;;;;;;;;;;6217291;23;20020;-89
2022/05/14 03:47:50;;;;;;;8.52;2.20;;;;;;;;;;6217370;23;20008;-88
2022/05/14 03:50:16;;;;;;;7.72;2.03;;;;;;;;;;6218577;23;20004;-81
2022/05/14 04:01:38;;;;;;;7.82;2.40;;;;;;;;;;6218311;23;20011;-88
2022/05/14 04:04:35;;;;;;;5.53;2.08;;;;;;;;;;6218879;23;20012;-88
2022/05/14 04:07:10;;;;;;;6.70;2.28;;;;;;;;;;6217001;23;20023;-89
2022/05/14 04:09:48;;;;;;;6.65;2.22;;;;;;;;;;6217339;23;20058;-90
2022/05/14 04:12:54;;;;;;;5.28;1.85;;;;;;;;;;6208537;23;20032;-90
2022/05/14 04:15:23;;;;;;;5.38;2.00;;;;;;;;;;6185635;23;20374;-83
2022/05/14 04:17:58;;;;;;;4.72;2.17;;;;;;;;;;6187837;23;20012;-83
2022/05/14 04:20:25;;;;;;;6.93;2.17;;;;;;;;;;6185619;23;20005;-82
2022/05/14 04:23:28;;;;;;;6.25;2.15;;;;;;;;;;6184577;23;20016;-85
2022/05/14 04:26:05;;;;;;;7.32;2.78;;;;;;;;;;6184482;23;20013;-79
2022/05/14 04:28:44;;;;;;;6.50;1.92;;;;;;;;;;6160156;23;20029;-86
2022/05/14 04:31:21;;;;;;;7.53;2.08;;;;;;;;;;6185899;23;20005;-87
2022/05/14 04:34:37;;;;;;;5.63;2.10;;;;;;;;;;6187846;23;20060;-88
2022/05/14 04:37:15;;;;;;;6.35;2.30;;;;;;;;;;6101579;23;20006;-87
2022/05/14 04:39:50;;;;;;;4.80;2.30;;;;;;;;;;6146033;23;20005;-85
2022/05/14 04:45:14;;;;;;;4.82;2.25;;;;;;;;;;6154304;23;20115;-82
2022/05/14 04:47:43;;;;;;;11.23;2.30;;;;;;;;;;6130863;23;20463;-81
2022/05/14 04:50:15;;;;;;;6.35;2.00;;;;;;;;;;6157614;23;20327;-87
2022/05/14 04:52:56;;;;;;;5.50;2.17;;;;;;;;;;6184152;23;20005;-88
2022/05/14 04:55:23;;;;;;;4.88;2.05;;;;;;;;;;6185264;23;20325;-86
2022/05/14 04:57:49;;;;;;;5.53;1.88;;;;;;;;;;6200776;23;20020;-82
2022/05/14 05:00:17;;;;;;;4.20;1.92;;;;;;;;;;6217385;23;20001;-83
2022/05/14 05:09:59;;;;;;;7.22;2.17;;;;;;;;;;6189419;23;20032;-88
2022/05/14 05:12:26;;;;;;;5.60;1.95;;;;;;;;;;6163357;23;20382;-78
2022/05/14 05:17:37;;;;;;;5.78;1.90;;;;;;;;;;6188992;23;20052;-82
2022/05/14 05:20:04;;;;;;;6.57;1.75;;;;;;;;;;6189014;23;20009;-87
2022/05/14 05:22:30;;;;;;;5.95;1.60;;;;;;;;;;6184855;23;20021;-79
2022/05/14 05:25:12;;;;;;;4.97;1.70;;;;;;;;;;6192467;23;20438;-89
2022/05/14 05:27:53;;;;;;;5.88;1.45;;;;;;;;;;6220143;23;20000;-88
2022/05/14 05:30:20;;;;;;;3.95;1.35;;;;;;;;;;6193053;23;20005;-81
2022/05/14 05:32:46;;;;;;;4.47;1.40;;;;;;;;;;6187869;23;20086;-81
2022/05/14 05:35:21;;;;;;;7.53;1.70;;;;;;;;;;6218407;23;20001;-86
2022/05/14 05:37:57;;;;;;;3.78;1.80;;;;;;;;;;6194208;23;20005;-84
2022/05/14 05:40:27;;;;;;;8.57;1.92;;;;;;;;;;6194031;23;20015;-85
2022/05/14 05:42:53;;;;;;;8.50;2.10;;;;;;;;;;6192421;23;20017;-82
2022/05/14 05:45:30;;;;;;;5.88;1.92;;;;;;;;;;6191696;23;20005;-92
2022/05/14 06:02:49;;;;;;;;;;;;;;;;;;;;;
2022/05/14 06:08:58;;;;;;;5.90;2.40;;;;;;;;;;6219044;23;20008;-84
2022/05/14 06:14:28;;;;;;;5.32;1.58;;;;;;;;;;6157563;23;20053;-80
2022/05/14 06:19:30;;;;;;;4.35;1.52;;;;;;;;;;6267534;22;20153;-79
2022/05/14 06:21:56;;;;;;;5.45;1.67;;;;;;;;;;6251276;22;20424;-79
2022/05/14 06:24:23;;;;;;;4.10;1.40;;;;;;;;;;6277407;22;20000;-82
2022/05/14 06:26:49;;;;;;;5.55;1.77;;;;;;;;;;6251696;22;20375;-82
2022/05/14 06:29:15;;;;;;;6.22;1.80;;;;;;;;;;6251426;22;20058;-83
2022/05/14 06:31:41;;;;;;;6.32;1.85;;;;;;;;;;6251434;22;20003;-83
2022/05/14 06:34:07;;;;;;;4.22;1.63;;;;;;;;;;6278554;22;20421;-81
2022/05/14 06:36:33;;;;;;;7.03;1.88;;;;;;;;;;6250898;22;20091;-81
2022/05/14 06:39:00;;;;;;;6.57;2.00;;;;;;;;;;6252486;22;20004;-86
2022/05/14 06:41:30;;;;;;;5.68;1.90;;;;;;;;;;6252410;22;20059;-87
2022/05/14 06:44:23;;;;;;;5.72;1.98;;;;;;;;;;6251156;22;20000;-81
2022/05/14 06:46:49;;;;;;;7.22;2.00;;;;;;;;;;6215868;22;20045;-81
2022/05/14 06:49:15;;;;;;;8.02;2.45;;;;;;;;;;6251175;22;20004;-83
2022/05/14 06:51:41;;;;;;;4.85;1.60;;;;;;;;;;6278126;22;20000;-84
2022/05/14 06:54:09;;;;;;;3.25;1.50;;;;;;;;;;6250885;22;20086;-88
2022/05/14 07:02:49;;;;;;;4.30;1.65;;;;;;;;;;6183525;23;20080;-84
2022/05/14 07:13:24;;;;;;;5.95;1.73;;;;;;;;;;6217455;22;20531;-84
2022/05/14 07:15:50;;;;;;;4.80;1.70;;;;;;;;;;6217921;23;20004;-88
2022/05/14 07:18:16;;;;;;;4.18;1.40;;;;;;;;;;6195083;22;20049;-78
2022/05/14 07:20:42;;;;;;;5.88;1.50;;;;;;;;;;6160657;23;20005;-79
2022/05/14 07:23:08;;;;;;;3.83;1.48;;;;;;;;;;6160041;23;20007;-82
2022/05/14 07:25:34;;;;;;;6.50;1.30;;;;;;;;;;6161267;23;20012;-81
2022/05/14 07:28:01;;;;;;;5.13;1.50;;;;;;;;;;6159529;23;20016;-83
2022/05/14 07:30:27;;;;;;;4.00;1.45;;;;;;;;;;6160213;23;20029;-83
2022/05/14 07:32:53;;;;;;;5.18;1.75;;;;;;;;;;6160435;23;20017;-83
2022/05/14 07:35:19;;;;;;;3.90;1.45;;;;;;;;;;6160060;23;20005;-85
2022/05/14 07:37:49;;;;;;;4.72;1.40;;;;;;;;;;6160647;23;20431;-86
2022/05/14 07:40:16;;;;;;;9.13;1.70;;;;;;;;;;6160464;23;20039;-81
2022/05/14 07:42:58;;;;;;;5.32;1.40;;;;;;;;;;6160743;23;20012;-84
2022/05/14 07:45:27;;;;;;;5.20;1.50;;;;;;;;;;6160341;23;20009;-90
2022/05/14 07:47:54;;;;;;;6.50;1.52;;;;;;;;;;6148928;23;20025;-83
2022/05/14 07:50:20;;;;;;;4.65;1.25;;;;;;;;;;6151133;23;20006;-83
2022/05/14 07:52:46;;;;;;;5.03;1.20;;;;;;;;;;6167784;23;20027;-83
2022/05/14 07:55:12;;;;;;;5.70;1.13;;;;;;;;;;6156718;23;20002;-83
2022/05/14 07:57:38;;;;;;;3.75;1.40;;;;;;;;;;6156342;23;20427;-82
2022/05/14 08:00:05;;;;;;;6.03;1.38;;;;;;;;;;6155102;23;20039;-83
2022/05/14 08:02:34;;;;;;;6.57;1.30;;;;;;;;;;6155601;23;20076;-82
2022/05/14 08:05:05;;;;;;;10.70;3.47;;;;;;;;;;6154869;23;20011;-87
2022/05/14 08:07:34;;;;;;;15.40;10.65;;;;;;;;;;6150059;23;20355;-83
2022/05/14 11:53:48;;;;;;;8.10;1.73;;;;;;;;;;6156642;23;20079;-78
